Time;durP1;ratioP1;P1;durP2;ratioP2;P2;SDS_P1;SDS_P2;PMS_P1;PMS_P2;Temp;Humidity;BMP_temperature;BMP_pressure;BME280_temperature;BME280_humidity;BME280_pressure;Samples;Min_cycle;Max_cycle;Signal;HPM_P1;HPM_P2
2023/06/07 00:02:21;;;;;;;12.10;5.60;;;;;;;14.76;63.83;100740.53;104040;277;38508;-71
2023/06/07 00:05:00;;;;;;;8.30;5.90;;;;;;;14.72;63.94;100740.92;103887;266;38521;-72
2023/06/07 00:07:35;;;;;;;8.50;5.90;;;;;;;14.67;64.11;100740.61;103988;277;38802;-73
2023/06/07 00:10:11;;;;;;;10.20;5.80;;;;;;;14.62;64.15;100738.80;104027;277;38507;-72
2023/06/07 00:12:51;;;;;;;7.40;5.50;;;;;;;14.56;64.22;100732.75;104005;277;39155;-71
2023/06/07 00:15:27;;;;;;;9.00;5.70;;;;;;;14.52;64.46;100735.61;104058;277;38487;-73
2023/06/07 00:18:02;;;;;;;10.30;6.00;;;;;;;14.48;64.64;100732.77;104050;277;39772;-70
2023/06/07 00:20:38;;;;;;;10.90;5.50;;;;;;;14.44;64.66;100728.88;104086;277;38526;-71
2023/06/07 00:23:13;;;;;;;9.90;5.80;;;;;;;14.40;64.82;100733.63;104074;277;40213;-71
2023/06/07 00:25:49;;;;;;;16.20;6.20;;;;;;;14.35;65.07;100733.21;104060;277;38500;-72
2023/06/07 00:28:26;;;;;;;14.60;5.90;;;;;;;14.27;65.11;100732.02;104120;277;39633;-72
2023/06/07 00:31:03;;;;;;;10.90;5.70;;;;;;;14.21;65.36;100734.56;104055;277;38787;-71
2023/06/07 00:33:37;;;;;;;12.90;6.10;;;;;;;14.16;65.50;100733.73;104116;277;38671;-72
2023/06/07 00:36:15;;;;;;;11.70;5.80;;;;;;;14.13;65.48;100730.56;104063;277;38483;-72
2023/06/07 00:39:08;;;;;;;12.60;6.20;;;;;;;14.10;65.62;100729.66;104143;276;38961;-71
2023/06/07 00:41:50;;;;;;;12.10;7.60;;;;;;;14.07;65.80;100728.73;104005;277;39720;-70
2023/06/07 00:44:33;;;;;;;12.20;6.50;;;;;;;14.04;65.82;100730.48;104068;277;38623;-70
2023/06/07 00:47:14;;;;;;;14.00;6.40;;;;;;;13.98;65.95;100728.09;104035;277;38597;-71
2023/06/07 00:49:52;;;;;;;15.00;6.50;;;;;;;13.95;65.81;100722.79;103962;277;172335;-72
2023/06/07 00:52:33;;;;;;;13.00;6.30;;;;;;;13.93;65.83;100719.57;103999;277;38525;-71
2023/06/07 00:55:12;;;;;;;15.60;7.10;;;;;;;13.90;65.99;100722.84;104055;276;38226;-71
2023/06/07 00:57:50;;;;;;;20.00;7.40;;;;;;;13.86;66.17;100720.24;104026;277;38324;-69
2023/06/07 01:00:25;;;;;;;12.70;6.50;;;;;;;13.82;66.35;100719.55;104046;277;38710;-72
2023/06/07 01:03:04;;;;;;;17.30;7.20;;;;;;;13.78;66.45;100715.52;104015;277;38438;-71
2023/06/07 01:05:38;;;;;;;15.70;7.60;;;;;;;13.75;66.66;100719.67;103870;266;39911;-71
2023/06/07 01:08:16;;;;;;;18.40;7.40;;;;;;;13.72;66.75;100712.29;104058;277;38240;-71
2023/06/07 01:10:55;;;;;;;16.60;7.80;;;;;;;13.69;66.78;100711.01;104024;277;38272;-71
2023/06/07 01:13:31;;;;;;;15.80;7.50;;;;;;;13.66;66.91;100720.42;104087;277;38706;-71
2023/06/07 01:16:11;;;;;;;16.10;7.60;;;;;;;13.63;66.92;100719.33;104074;277;39249;-71
2023/06/07 01:18:47;;;;;;;15.80;7.00;;;;;;;13.60;67.01;100722.66;104060;277;38412;-71
2023/06/07 01:21:25;;;;;;;17.30;7.30;;;;;;;13.53;66.97;100723.34;104044;265;38491;-72
2023/06/07 01:23:59;;;;;;;20.80;6.90;;;;;;;13.48;67.15;100724.77;104073;276;38803;-72
2023/06/07 01:26:36;;;;;;;11.80;6.60;;;;;;;13.45;67.44;100725.58;104053;277;38336;-72
2023/06/07 01:29:12;;;;;;;14.50;7.50;;;;;;;13.40;67.46;100716.67;104046;277;38760;-72
2023/06/07 01:31:46;;;;;;;11.60;7.40;;;;;;;13.37;67.47;100721.20;104022;277;39473;-72
2023/06/07 01:34:20;;;;;;;10.60;7.00;;;;;;;13.33;67.46;100715.26;104023;277;39391;-70
2023/06/07 01:36:57;;;;;;;11.80;6.90;;;;;;;13.29;67.59;100717.01;104028;277;39442;-71
2023/06/07 01:39:39;;;;;;;13.10;6.80;;;;;;;13.24;67.67;100714.59;104081;277;38348;-71
2023/06/07 01:42:20;;;;;;;12.40;7.00;;;;;;;13.20;67.57;100717.73;104058;277;38232;-71
2023/06/07 01:44:59;;;;;;;10.90;6.90;;;;;;;13.18;67.85;100716.77;103906;277;38570;-69
2023/06/07 01:47:42;;;;;;;13.00;7.20;;;;;;;13.15;67.83;100711.61;104029;277;39395;-72
2023/06/07 01:50:29;;;;;;;12.60;7.00;;;;;;;13.12;67.83;100711.75;104079;277;38645;-71
2023/06/07 01:53:08;;;;;;;14.40;7.20;;;;;;;13.07;67.87;100706.39;104074;277;39868;-71
2023/06/07 01:55:42;;;;;;;13.60;6.70;;;;;;;13.02;68.02;100711.33;104058;277;38401;-72
2023/06/07 01:58:26;;;;;;;14.20;7.70;;;;;;;12.99;68.01;100713.37;104123;277;38301;-71
2023/06/07 02:01:17;;;;;;;13.60;7.30;;;;;;;12.97;68.32;100713.30;104076;277;38589;-69
2023/06/07 02:04:06;;;;;;;16.30;7.90;;;;;;;12.93;68.45;100715.20;104078;274;39427;-72
2023/06/07 02:06:54;;;;;;;23.00;7.90;;;;;;;12.89;68.66;100709.05;104045;277;38915;-72
2023/06/07 02:09:35;;;;;;;;;;;;;;;12.87;68.51;100712.66;104103;276;38311;-70
2023/06/07 02:12:13;;;;;;;19.90;7.80;;;;;;;12.79;68.74;100714.91;103802;277;172384;-71
2023/06/07 02:14:52;;;;;;;17.40;7.70;;;;;;;12.78;68.67;100711.96;104092;277;39130;-71
2023/06/07 02:17:28;;;;;;;17.20;8.20;;;;;;;12.77;68.76;100712.71;104067;277;38482;-72
2023/06/07 02:20:04;;;;;;;12.60;7.60;;;;;;;12.74;68.81;100710.58;104055;277;38251;-72
2023/06/07 02:22:41;;;;;;;19.70;8.20;;;;;;;12.69;68.69;100708.86;104078;277;38746;-72
2023/06/07 02:25:16;;;;;;;12.10;7.20;;;;;;;12.65;68.91;100704.98;104038;277;38283;-71
2023/06/07 02:27:59;;;;;;;13.70;7.20;;;;;;;12.63;68.94;100704.18;104023;277;39950;-72
2023/06/07 02:30:36;;;;;;;14.50;7.40;;;;;;;12.61;69.10;100702.36;103839;277;38808;-71
2023/06/07 02:33:13;;;;;;;19.60;8.50;;;;;;;12.61;69.24;100702.02;104024;277;38454;-70
2023/06/07 02:35:51;;;;;;;17.70;8.40;;;;;;;12.59;69.25;100703.84;104035;277;38230;-71
2023/06/07 02:38:34;;;;;;;17.30;8.10;;;;;;;12.57;69.37;100701.98;104088;277;40090;-72
2023/06/07 02:41:10;;;;;;;14.90;7.50;;;;;;;12.55;69.37;100702.75;104079;277;38231;-72
2023/06/07 02:43:47;;;;;;;15.20;7.70;;;;;;;12.56;69.40;100706.26;103818;277;174856;-73
2023/06/07 02:46:23;;;;;;;15.70;7.30;;;;;;;12.59;69.48;100707.70;104065;277;38392;-72
2023/06/07 02:49:01;;;;;;;17.00;8.20;;;;;;;12.61;69.64;100710.92;104071;277;38234;-72
2023/06/07 02:51:39;;;;;;;13.80;8.00;;;;;;;12.63;69.63;100704.38;104053;277;39650;-72
2023/06/07 02:54:15;;;;;;;13.20;7.90;;;;;;;12.66;69.69;100710.39;104126;277;39940;-72
2023/06/07 02:56:53;;;;;;;18.20;8.30;;;;;;;12.68;69.76;100712.21;104091;277;38544;-72
2023/06/07 02:59:31;;;;;;;11.60;7.40;;;;;;;12.70;69.91;100709.31;104061;276;38650;-71
2023/06/07 03:02:06;;;;;;;15.10;7.70;;;;;;;12.75;70.15;100710.70;104083;276;38514;-71
2023/06/07 03:04:44;;;;;;;13.30;7.60;;;;;;;12.78;69.92;100706.17;104077;277;38349;-72
2023/06/07 03:07:20;;;;;;;18.30;8.70;;;;;;;12.82;70.00;100709.72;104009;277;38463;-72
2023/06/07 03:09:54;;;;;;;15.50;7.60;;;;;;;12.86;70.09;100710.06;104044;276;38523;-71
2023/06/07 03:12:40;;;;;;;14.10;7.00;;;;;;;12.93;70.20;100718.02;104023;277;38355;-71
2023/06/07 03:15:27;;;;;;;14.00;7.70;;;;;;;12.98;70.22;100722.16;104019;277;38218;-71
2023/06/07 03:18:04;;;;;;;12.40;7.30;;;;;;;13.05;70.38;100720.98;103988;277;39455;-70
2023/06/07 03:20:42;;;;;;;10.70;7.20;;;;;;;13.11;70.33;100720.37;103576;277;692382;-72
2023/06/07 03:23:16;;;;;;;11.80;7.10;;;;;;;13.16;70.33;100721.22;104023;277;38224;-72
2023/06/07 03:25:51;;;;;;;12.70;7.10;;;;;;;13.21;70.48;100719.60;104073;277;38296;-71
2023/06/07 03:28:25;;;;;;;10.80;6.60;;;;;;;13.35;70.63;100721.48;104061;277;38499;-72
2023/06/07 03:31:01;;;;;;;9.60;6.40;;;;;;;13.50;70.48;100716.60;104053;277;39214;-72
2023/06/07 03:33:44;;;;;;;14.60;6.90;;;;;;;13.65;70.11;100709.11;103882;277;39583;-72
2023/06/07 03:36:24;;;;;;;11.70;6.90;;;;;;;14.03;70.09;100709.25;104091;265;39401;-71
2023/06/07 03:39:07;;;;;;;12.60;6.80;;;;;;;14.65;70.28;100713.33;104111;276;39512;-72
2023/06/07 03:41:57;;;;;;;12.50;6.30;;;;;;;15.40;69.71;100709.15;104090;277;38806;-72
2023/06/07 03:44:40;;;;;;;13.00;6.50;;;;;;;16.32;68.44;100713.16;104099;277;38539;-72
2023/06/07 03:47:24;;;;;;;15.60;6.30;;;;;;;17.18;65.62;100720.83;104092;277;38265;-72
2023/06/07 03:50:07;;;;;;;14.40;6.20;;;;;;;18.00;64.69;100712.80;104091;277;38556;-71
2023/06/07 03:52:54;;;;;;;14.30;6.00;;;;;;;18.93;62.17;100710.60;104050;277;38235;-72
2023/06/07 03:55:37;;;;;;;11.20;5.50;;;;;;;19.89;58.63;100705.92;104061;277;39466;-72
2023/06/07 03:58:19;;;;;;;11.50;5.50;;;;;;;20.73;56.64;100714.33;104075;277;38222;-72
2023/06/07 04:00:59;;;;;;;10.50;5.60;;;;;;;21.39;54.21;100709.96;104051;277;38258;-72
2023/06/07 04:03:35;;;;;;;14.20;5.70;;;;;;;22.19;51.79;100704.88;104051;277;38973;-71
2023/06/07 04:06:10;;;;;;;16.00;6.10;;;;;;;22.96;48.13;100702.09;104030;276;38284;-73
2023/06/07 04:08:46;;;;;;;17.20;6.50;;;;;;;23.62;46.76;100704.03;104017;277;38487;-71
2023/06/07 04:11:26;;;;;;;16.00;5.40;;;;;;;24.24;44.19;100704.85;103918;277;174261;-71
2023/06/07 04:14:02;;;;;;;17.50;5.70;;;;;;;24.86;42.70;100707.70;104051;276;39628;-72
2023/06/07 04:16:37;;;;;;;19.40;6.00;;;;;;;25.37;42.01;100704.52;103448;277;891089;-72
2023/06/07 04:19:16;;;;;;;39.20;7.60;;;;;;;25.77;40.06;100695.73;104033;277;38368;-71
2023/06/07 04:21:53;;;;;;;26.30;7.20;;;;;;;25.92;38.71;100695.52;104065;277;38707;-71
2023/06/07 04:24:30;;;;;;;36.30;7.40;;;;;;;25.47;38.24;100699.65;104090;277;38566;-72
2023/06/07 04:27:11;;;;;;;37.30;8.00;;;;;;;24.84;38.62;100702.00;104016;277;39981;-73
2023/06/07 04:29:53;;;;;;;25.70;7.00;;;;;;;24.17;39.51;100702.40;104076;277;38890;-71
2023/06/07 04:32:27;;;;;;;28.70;7.00;;;;;;;23.62;39.99;100700.55;104057;277;38240;-72
2023/06/07 04:35:02;;;;;;;18.20;5.60;;;;;;;23.14;40.30;100699.64;104029;277;39628;-70
2023/06/07 04:37:40;;;;;;;28.30;7.40;;;;;;;22.75;41.23;100704.15;103864;276;38340;-70
2023/06/07 04:40:15;;;;;;;27.10;6.40;;;;;;;22.36;41.85;100700.48;104063;277;38452;-71
2023/06/07 04:43:04;;;;;;;31.10;7.00;;;;;;;22.10;42.46;100701.02;104075;277;39113;-71
2023/06/07 04:45:41;;;;;;;32.80;7.10;;;;;;;22.02;42.76;100699.87;104044;276;38217;-72
2023/06/07 04:48:16;;;;;;;30.50;7.20;;;;;;;22.03;43.38;100700.64;104046;277;39610;-71
2023/06/07 04:51:03;;;;;;;43.40;8.10;;;;;;;22.15;43.52;100700.94;104004;277;39638;-70
2023/06/07 04:53:38;;;;;;;53.30;8.70;;;;;;;22.31;42.79;100702.46;104083;277;39632;-71
2023/06/07 04:56:16;;;;;;;38.00;7.40;;;;;;;22.43;43.03;100703.98;104030;277;39064;-71
2023/06/07 04:58:52;;;;;;;41.30;7.90;;;;;;;22.68;43.20;100703.52;104058;277;38639;-69
2023/06/07 05:01:29;;;;;;;22.30;6.50;;;;;;;23.36;42.50;100702.20;103435;277;891700;-70
2023/06/07 05:04:06;;;;;;;34.90;6.60;;;;;;;24.32;41.44;100701.74;104079;277;39741;-71
2023/06/07 05:06:44;;;;;;;30.90;7.20;;;;;;;25.45;40.43;100700.02;103881;277;38257;-71
2023/06/07 05:09:23;;;;;;;35.40;6.80;;;;;;;26.54;38.71;100695.28;103863;277;39171;-69
2023/06/07 05:12:00;;;;;;;27.60;6.20;;;;;;;27.61;36.68;100690.84;104090;277;38429;-70
2023/06/07 05:14:37;;;;;;;23.70;6.00;;;;;;;28.47;34.53;100692.73;103923;266;38391;-71
2023/06/07 05:17:16;;;;;;;32.20;6.50;;;;;;;29.26;31.63;100694.17;104063;277;38248;-74
2023/06/07 05:19:54;;;;;;;27.20;5.90;;;;;;;29.71;30.81;100692.32;104094;277;38769;-72
2023/06/07 05:22:31;;;;;;;32.50;5.60;;;;;;;30.01;30.18;100687.55;104105;277;39945;-73
2023/06/07 05:25:15;;;;;;;23.20;5.40;;;;;;;30.66;29.15;100690.32;104125;277;38836;-71
2023/06/07 05:27:54;;;;;;;24.60;5.30;;;;;;;31.17;28.66;100690.56;104107;268;38409;-70
2023/06/07 05:30:31;;;;;;;18.40;4.80;;;;;;;31.60;27.81;100692.53;104049;265;38423;-69
2023/06/07 05:33:06;;;;;;;17.90;5.10;;;;;;;32.00;27.10;100692.16;104041;277;38705;-70
2023/06/07 05:35:44;;;;;;;12.20;4.70;;;;;;;32.39;26.39;100691.85;104033;277;38272;-73
2023/06/07 05:38:19;;;;;;;14.40;5.20;;;;;;;32.66;26.23;100692.54;103462;277;901446;-70
2023/06/07 05:40:54;;;;;;;25.10;5.60;;;;;;;32.96;25.37;100697.27;104051;297;38535;-70
2023/06/07 05:43:29;;;;;;;13.30;5.10;;;;;;;33.14;24.87;100698.91;104064;277;38931;-70
2023/06/07 05:46:03;;;;;;;16.40;5.40;;;;;;;33.35;24.65;100699.59;103844;277;39468;-70
2023/06/07 05:48:37;;;;;;;18.20;5.60;;;;;;;33.59;24.10;100698.90;104035;277;38254;-71
2023/06/07 05:51:13;;;;;;;26.00;6.90;;;;;;;33.88;24.39;100696.84;104067;277;39741;-70
2023/06/07 05:53:49;;;;;;;22.40;5.40;;;;;;;34.14;23.80;100694.62;104044;276;38269;-70
2023/06/07 05:56:24;;;;;;;24.60;5.70;;;;;;;34.49;23.17;100693.73;104035;276;38492;-70
2023/06/07 05:58:59;;;;;;;22.90;5.80;;;;;;;34.52;22.68;100695.15;104054;276;39441;-70
2023/06/07 06:01:34;;;;;;;15.00;5.40;;;;;;;34.79;22.70;100696.88;104013;276;38600;-70
2023/06/07 06:04:12;;;;;;;15.10;5.60;;;;;;;35.27;22.39;100694.73;104078;276;38607;-70
2023/06/07 06:06:49;;;;;;;13.10;5.30;;;;;;;35.72;21.93;100696.69;103956;277;170927;-71
2023/06/07 06:09:28;;;;;;;16.70;5.30;;;;;;;35.95;22.00;100695.34;103943;277;38243;-70
2023/06/07 06:12:06;;;;;;;13.50;5.30;;;;;;;36.23;21.42;100695.61;104051;277;39573;-71
2023/06/07 06:14:46;;;;;;;14.60;4.90;;;;;;;36.29;20.98;100694.19;104109;277;38355;-71
2023/06/07 06:17:22;;;;;;;20.40;5.30;;;;;;;36.42;20.75;100699.02;103965;277;173971;-70
2023/06/07 06:20:00;;;;;;;14.20;4.60;;;;;;;36.51;20.30;100703.42;104085;277;39369;-70
2023/06/07 06:22:35;;;;;;;15.20;4.30;;;;;;;36.57;20.31;100698.85;104053;277;38257;-70
2023/06/07 06:25:15;;;;;;;20.90;5.50;;;;;;;36.76;20.58;100700.85;104087;277;38378;-70
2023/06/07 06:27:54;;;;;;;12.40;4.50;;;;;;;37.10;20.49;100704.48;104085;276;38525;-73
2023/06/07 06:30:39;;;;;;;10.50;4.30;;;;;;;37.38;19.62;100708.88;104027;277;39381;-70
2023/06/07 06:33:17;;;;;;;10.60;4.50;;;;;;;37.52;19.05;100712.56;104015;277;39888;-70
2023/06/07 06:35:55;;;;;;;12.50;4.30;;;;;;;37.55;19.00;100710.79;104069;277;38751;-70
2023/06/07 06:38:30;;;;;;;13.40;3.80;;;;;;;37.32;19.09;100707.58;104055;277;38229;-70
2023/06/07 06:41:04;;;;;;;9.30;3.90;;;;;;;37.18;18.60;100706.24;104071;277;38428;-70
2023/06/07 06:43:43;;;;;;;12.80;3.80;;;;;;;36.89;19.25;100701.83;104029;277;38496;-70
2023/06/07 06:46:18;;;;;;;14.10;4.40;;;;;;;36.99;19.63;100701.94;104046;276;39418;-71
2023/06/07 06:48:55;;;;;;;13.80;4.50;;;;;;;37.33;18.98;100700.14;104049;277;39575;-70
2023/06/07 06:51:31;;;;;;;11.90;4.10;;;;;;;37.48;18.74;100701.30;104034;277;38493;-72
2023/06/07 06:54:06;;;;;;;17.80;4.00;;;;;;;37.63;18.61;100696.66;104041;277;38711;-72
2023/06/07 06:56:44;;;;;;;16.20;4.50;;;;;;;37.75;18.02;100699.91;104041;277;38953;-71
2023/06/07 06:59:19;;;;;;;20.90;4.90;;;;;;;37.80;18.31;100700.04;104036;277;39052;-71
2023/06/07 07:01:56;;;;;;;20.10;4.00;;;;;;;38.04;17.68;100698.90;104102;277;38693;-71
2023/06/07 07:04:35;;;;;;;28.50;5.50;;;;;;;37.90;17.97;100697.20;103984;277;170710;-71
2023/06/07 07:07:12;;;;;;;18.00;3.90;;;;;;;38.02;18.15;100697.29;104118;276;38384;-72
2023/06/07 07:09:47;;;;;;;9.10;3.20;;;;;;;38.30;17.96;100691.19;103876;277;187229;-71
2023/06/07 07:12:24;;;;;;;10.10;3.30;;;;;;;38.70;17.10;100689.06;104102;277;39407;-71
2023/06/07 07:15:00;;;;;;;16.20;4.10;;;;;;;38.79;16.86;100689.30;104083;277;38269;-72
2023/06/07 07:17:35;;;;;;;15.50;3.30;;;;;;;38.89;16.81;100689.64;104110;277;38236;-72
2023/06/07 07:20:12;;;;;;;8.90;3.00;;;;;;;39.03;16.63;100688.82;104058;276;38225;-72
2023/06/07 07:22:48;;;;;;;11.90;4.10;;;;;;;39.20;17.34;100695.08;104059;277;38239;-71
2023/06/07 07:25:23;;;;;;;7.90;2.70;;;;;;;39.29;15.85;100697.86;104053;275;38477;-71
2023/06/07 07:27:59;;;;;;;6.90;3.00;;;;;;;39.06;16.03;100696.33;104045;277;38637;-71
2023/06/07 07:30:37;;;;;;;;;;;;;;;39.01;15.70;100698.48;104038;277;38795;-71
2023/06/07 07:33:15;;;;;;;7.10;2.70;;;;;;;38.72;16.02;100692.11;103982;277;38484;-71
2023/06/07 07:35:51;;;;;;;7.30;2.70;;;;;;;38.84;16.05;100693.48;104001;277;39629;-71
2023/06/07 07:38:26;;;;;;;9.70;3.20;;;;;;;39.03;16.07;100694.84;104052;277;38837;-72
2023/06/07 07:41:04;;;;;;;6.00;3.00;;;;;;;39.22;16.00;100693.29;104031;277;39418;-70
2023/06/07 07:43:37;;;;;;;9.90;3.20;;;;;;;39.16;15.75;100698.94;104084;277;39646;-71
2023/06/07 07:46:13;;;;;;;7.60;2.60;;;;;;;39.09;15.86;100695.52;104051;277;39458;-71
2023/06/07 07:48:48;;;;;;;15.50;3.50;;;;;;;39.01;15.93;100691.67;104070;276;40238;-71
2023/06/07 07:51:24;;;;;;;8.70;2.80;;;;;;;38.92;15.81;100693.06;104042;277;39484;-70
2023/06/07 07:54:00;;;;;;;15.40;4.20;;;;;;;38.99;15.95;100689.60;104071;277;39876;-70
2023/06/07 07:56:35;;;;;;;23.30;5.40;;;;;;;39.29;16.09;100694.59;104136;277;38279;-71
2023/06/07 07:59:09;;;;;;;10.20;3.70;;;;;;;39.46;15.65;100690.85;104089;277;39269;-71
2023/06/07 08:01:45;;;;;;;8.30;3.20;;;;;;;39.38;15.50;100691.71;104076;277;38475;-71
2023/06/07 08:04:22;;;;;;;6.00;2.50;;;;;;;39.30;15.64;100690.23;103891;277;38424;-71
2023/06/07 08:07:00;;;;;;;5.80;2.60;;;;;;;39.43;16.16;100687.39;103935;277;173476;-71
2023/06/07 08:09:34;;;;;;;7.10;3.00;;;;;;;39.87;15.76;100685.59;104054;265;38588;-71
2023/06/07 08:12:13;;;;;;;6.80;2.50;;;;;;;40.14;14.81;100691.23;104032;277;38448;-70
2023/06/07 08:14:49;;;;;;;8.30;3.00;;;;;;;40.01;14.56;100692.49;104062;277;38831;-71
2023/06/07 08:17:26;;;;;;;7.40;2.60;;;;;;;39.80;14.67;100693.40;104036;277;39575;-70
2023/06/07 08:20:04;;;;;;;8.00;2.90;;;;;;;39.76;15.14;100687.89;103876;277;39468;-70
2023/06/07 08:22:38;;;;;;;6.30;2.70;;;;;;;39.86;15.06;100686.82;104066;277;38240;-70
2023/06/07 08:25:19;;;;;;;5.70;2.70;;;;;;;40.03;14.64;100691.16;104065;277;38245;-72
2023/06/07 08:27:59;;;;;;;8.20;3.40;;;;;;;40.02;14.85;100687.62;104050;277;38231;-71
2023/06/07 08:30:45;;;;;;;11.20;3.10;;;;;;;40.16;14.84;100688.85;104038;276;38670;-71
2023/06/07 08:33:19;;;;;;;12.90;3.30;;;;;;;40.22;14.60;100690.55;104069;277;39106;-70
2023/06/07 08:35:53;;;;;;;11.50;3.10;;;;;;;40.10;14.53;100684.80;103824;277;39211;-71
2023/06/07 08:38:29;;;;;;;8.30;3.30;;;;;;;39.97;14.33;100677.44;104031;277;38285;-70
2023/06/07 08:41:07;;;;;;;6.40;2.80;;;;;;;40.04;14.97;100684.33;104046;276;40119;-71
2023/06/07 08:43:41;;;;;;;10.20;3.30;;;;;;;40.33;14.87;100677.60;104044;277;39475;-72
2023/06/07 08:46:18;;;;;;;6.60;3.10;;;;;;;40.51;14.67;100684.78;104060;277;39450;-70
2023/06/07 08:48:53;;;;;;;10.50;3.40;;;;;;;40.55;14.09;100679.52;104054;277;38606;-71
2023/06/07 08:51:31;;;;;;;6.90;3.10;;;;;;;40.28;14.30;100674.92;104043;277;39068;-71
2023/06/07 08:54:07;;;;;;;3.10;2.60;;;;;;;40.28;14.15;100667.48;104055;277;38632;-70
2023/06/07 08:56:44;;;;;;;17.10;3.80;;;;;;;40.33;14.38;100674.02;104102;277;38296;-71
2023/06/07 08:59:19;;;;;;;6.60;2.50;;;;;;;40.28;13.43;100673.04;104064;277;39695;-70
2023/06/07 09:02:02;;;;;;;8.40;2.80;;;;;;;40.24;13.43;100675.73;104085;265;39610;-70
2023/06/07 09:04:38;;;;;;;9.90;3.10;;;;;;;40.04;13.19;100670.36;104072;277;38936;-77
2023/06/07 09:07:12;;;;;;;6.30;2.90;;;;;;;39.90;13.72;100672.23;103846;278;39984;-76
2023/06/07 09:09:48;;;;;;;6.30;3.20;;;;;;;39.64;13.10;100674.92;103446;277;887818;-77
2023/06/07 09:12:24;;;;;;;5.30;2.60;;;;;;;38.88;13.08;100680.46;104312;277;38252;-81
2023/06/07 09:15:00;;;;;;;3.90;2.40;;;;;;;38.36;13.86;100678.35;104729;277;38634;-82
2023/06/07 09:18:02;;;;;;;4.40;2.70;;;;;;;38.01;14.03;100685.64;104217;277;38410;-78
2023/06/07 09:20:37;;;;;;;4.70;2.60;;;;;;;37.38;14.13;100686.45;104110;277;39686;-79
2023/06/07 09:23:19;;;;;;;5.00;2.80;;;;;;;36.91;14.63;100682.90;104734;277;38810;-80
2023/06/07 09:26:03;;;;;;;7.00;2.70;;;;;;;36.70;15.38;100676.32;104845;277;38692;-80
2023/06/07 09:28:41;;;;;;;11.80;3.40;;;;;;;36.38;15.01;100676.91;104110;277;39428;-77
2023/06/07 09:31:28;;;;;;;13.70;3.60;;;;;;;35.75;15.43;100678.73;104126;277;38438;-79
2023/06/07 09:34:11;;;;;;;3.00;2.70;;;;;;;35.25;15.87;100683.02;104149;277;39163;-77
2023/06/07 09:36:56;;;;;;;4.10;3.10;;;;;;;34.81;16.13;100681.27;104051;277;38236;-77
2023/06/07 09:39:39;;;;;;;6.00;3.50;;;;;;;34.45;16.49;100679.11;103978;277;39444;-80
2023/06/07 09:42:26;;;;;;;7.20;2.80;;;;;;;34.19;16.89;100675.01;104063;277;38231;-81
2023/06/07 09:45:13;;;;;;;6.10;2.90;;;;;;;34.00;17.33;100674.95;104252;277;39638;-79
2023/06/07 09:47:52;;;;;;;7.50;3.90;;;;;;;33.81;17.88;100683.83;104169;277;38301;-79
2023/06/07 09:50:36;;;;;;;5.60;2.80;;;;;;;33.57;17.44;100676.82;104044;277;39459;-77
2023/06/07 09:53:20;;;;;;;7.70;3.20;;;;;;;33.38;18.38;100668.79;104079;278;39598;-79
2023/06/07 09:56:01;;;;;;;7.50;3.70;;;;;;;33.29;18.87;100670.48;104209;266;39469;-81
2023/06/07 09:58:50;;;;;;;5.60;3.10;;;;;;;33.27;19.18;100669.17;104314;277;39711;-79
2023/06/07 10:01:37;;;;;;;;;;;;;;;33.30;19.35;100664.60;104210;277;38220;-79
2023/06/07 10:04:13;;;;;;;4.90;2.90;;;;;;;33.29;19.39;100662.00;104194;277;38606;-78
2023/06/07 10:06:54;;;;;;;5.40;3.00;;;;;;;33.34;19.29;100657.90;104120;277;38229;-79
2023/06/07 10:09:32;;;;;;;8.90;3.20;;;;;;;33.37;19.49;100654.29;104093;276;39421;-78
2023/06/07 10:12:12;;;;;;;4.40;3.10;;;;;;;33.20;19.58;100654.86;104084;277;38227;-77
2023/06/07 10:14:49;;;;;;;5.50;3.40;;;;;;;33.06;19.74;100655.84;104131;277;38808;-79
2023/06/07 10:17:32;;;;;;;3.90;3.00;;;;;;;33.01;20.03;100656.61;104119;280;38276;-79
2023/06/07 10:20:14;;;;;;;6.20;3.10;;;;;;;32.82;19.95;100653.74;104330;277;39453;-79
2023/06/07 10:22:51;;;;;;;6.90;3.20;;;;;;;32.40;20.02;100654.14;104249;277;39709;-78
2023/06/07 10:25:27;;;;;;;6.00;3.50;;;;;;;31.81;20.27;100649.52;103933;277;38485;-78
2023/06/07 10:28:21;;;;;;;9.90;3.20;;;;;;;31.45;20.95;100649.30;104052;277;38222;-79
2023/06/07 10:31:08;;;;;;;9.30;3.10;;;;;;;31.45;20.77;100651.22;104226;276;38255;-79
2023/06/07 10:33:44;;;;;;;8.50;3.00;;;;;;;31.40;20.79;100645.04;104379;277;38474;-78
2023/06/07 10:36:23;;;;;;;9.30;3.50;;;;;;;31.45;20.77;100642.70;103960;277;38671;-78
2023/06/07 10:39:05;;;;;;;7.70;3.00;;;;;;;31.40;20.60;100638.59;104210;277;38239;-79
2023/06/07 10:41:43;;;;;;;5.40;2.80;;;;;;;31.12;21.05;100642.29;104073;277;38865;-79
2023/06/07 10:44:18;;;;;;;5.50;2.90;;;;;;;31.04;21.56;100644.15;104367;277;38288;-80
2023/06/07 10:46:53;;;;;;;6.30;3.20;;;;;;;31.13;21.46;100642.54;104216;277;38984;-81
2023/06/07 10:49:53;;;;;;;4.00;2.80;;;;;;;31.18;21.08;100635.72;104255;277;38237;-79
2023/06/07 10:52:28;;;;;;;4.00;2.80;;;;;;;31.30;21.08;100632.13;104189;277;38280;-78
2023/06/07 10:55:12;;;;;;;5.50;2.50;;;;;;;31.36;21.38;100635.49;104146;277;38247;-79
2023/06/07 10:57:49;;;;;;;4.10;2.60;;;;;;;31.36;21.12;100634.37;104239;277;38249;-79
2023/06/07 11:00:45;;;;;;;3.60;2.60;;;;;;;31.37;21.03;100632.84;104146;277;38343;-78
2023/06/07 11:03:46;;;;;;;3.90;2.40;;;;;;;31.30;21.16;100636.52;104183;277;38253;-79
2023/06/07 11:06:29;;;;;;;4.30;2.60;;;;;;;31.22;20.91;100626.62;104174;277;38706;-78
2023/06/07 11:09:32;;;;;;;5.70;2.90;;;;;;;31.18;20.91;100628.59;104236;277;38357;-80
2023/06/07 11:12:20;;;;;;;4.40;2.80;;;;;;;31.10;21.08;100623.39;104222;277;38769;-79
2023/06/07 11:15:30;;;;;;;4.10;3.10;;;;;;;31.13;21.47;100630.11;104064;277;38927;-77
2023/06/07 11:18:11;;;;;;;4.20;2.60;;;;;;;31.20;21.37;100625.50;104405;277;38243;-79
2023/06/07 11:21:02;;;;;;;5.50;3.20;;;;;;;31.31;21.16;100625.77;103444;278;639704;-78
2023/06/07 11:23:44;;;;;;;4.70;2.50;;;;;;;31.35;21.24;100621.67;104166;277;38467;-79
2023/06/07 11:26:29;;;;;;;4.90;2.60;;;;;;;31.39;21.27;100623.72;104362;277;38549;-79
2023/06/07 11:29:14;;;;;;;6.20;2.80;;;;;;;31.35;21.36;100622.25;104266;277;38270;-77
2023/06/07 11:31:58;;;;;;;4.90;2.90;;;;;;;31.34;21.24;100618.38;103919;277;38210;-77
2023/06/07 11:34:36;;;;;;;5.20;2.70;;;;;;;31.31;21.64;100621.08;104174;277;39313;-80
2023/06/07 11:37:17;;;;;;;4.60;3.20;;;;;;;31.25;21.63;100619.30;104074;315;39129;-78
2023/06/07 11:40:02;;;;;;;4.30;3.00;;;;;;;31.27;21.70;100615.77;103598;277;892973;-80
2023/06/07 11:42:45;;;;;;;3.50;2.50;;;;;;;31.29;21.68;100615.02;104421;277;38894;-80
2023/06/07 11:45:28;;;;;;;11.10;2.90;;;;;;;31.26;21.59;100619.47;104105;277;39433;-78
2023/06/07 11:48:12;;;;;;;6.50;3.10;;;;;;;31.10;21.45;100613.39;103867;279;41199;-79
2023/06/07 11:50:48;;;;;;;5.40;2.60;;;;;;;30.95;21.92;100612.76;104035;277;38751;-78
2023/06/07 11:53:32;;;;;;;4.90;2.60;;;;;;;30.88;21.72;100612.94;104019;277;38493;-78
2023/06/07 11:56:11;;;;;;;4.10;2.70;;;;;;;30.76;21.50;100620.19;104184;277;38288;-79
2023/06/07 11:58:52;;;;;;;5.40;2.80;;;;;;;30.51;21.73;100616.80;104311;277;38553;-78
2023/06/07 12:01:34;;;;;;;4.60;2.70;;;;;;;30.18;21.66;100616.04;104182;277;39477;-79
2023/06/07 12:04:20;;;;;;;5.40;2.70;;;;;;;29.95;21.88;100609.84;104429;277;38242;-80
2023/06/07 12:06:59;;;;;;;4.60;2.50;;;;;;;29.87;21.97;100607.09;104391;277;39383;-79
2023/06/07 12:09:47;;;;;;;6.30;2.70;;;;;;;29.89;22.39;100603.98;104200;277;38312;-77
2023/06/07 12:12:22;;;;;;;5.10;2.70;;;;;;;30.00;22.63;100595.06;103984;277;38289;-77
2023/06/07 12:15:07;;;;;;;3.70;2.80;;;;;;;30.07;22.61;100601.55;103961;277;39422;-77